sensor_id;sensor_type;location;lat;lon;timestamp;pressure;altitude;pressure_sealevel;temperature;humidity
14757;BME280;62446;53.214;10.398;2022-08-01T00:00:43;101003.09;;;21.08;52.46
14757;BME280;62446;53.214;10.398;2022-08-01T00:03:48;100996.63;;;21.08;52.46
14757;BME280;62446;53.214;10.398;2022-08-01T00:06:52;101005.88;;;21.08;52.79
14757;BME280;62446;53.214;10.398;2022-08-01T00:09:56;101007.53;;;21.09;52.31
14757;BME280;62446;53.214;10.398;2022-08-01T00:12:59;101007.53;;;21.09;52.46
14757;BME280;62446;53.214;10.398;2022-08-01T00:16:03;101005.88;;;21.08;52.53
14757;BME280;62446;53.214;10.398;2022-08-01T00:19:09;101002.22;;;21.08;52.57
14757;BME280;62446;53.214;10.398;2022-08-01T00:22:12;100995.78;;;21.07;52.61
14757;BME280;62446;53.214;10.398;2022-08-01T00:25:16;101007.84;;;21.08;52.38
14757;BME280;62446;53.214;10.398;2022-08-01T00:28:20;101003.09;;;21.08;52.56
14757;BME280;62446;53.214;10.398;2022-08-01T00:31:24;101008.69;;;21.08;52.53
14757;BME280;62446;53.214;10.398;2022-08-01T00:34:29;101008.69;;;21.08;52.34
14757;BME280;62446;53.214;10.398;2022-08-01T00:37:33;100997.75;;;21.07;52.43
14757;BME280;62446;53.214;10.398;2022-08-01T00:40:36;100997.75;;;21.07;52.48
14757;BME280;62446;53.214;10.398;2022-08-01T00:43:40;101007.00;;;21.07;52.42
14757;BME280;62446;53.214;10.398;2022-08-01T00:46:44;100996.41;;;21.04;52.34
14757;BME280;62446;53.214;10.398;2022-08-01T00:49:49;100998.91;;;21.06;52.67
14757;BME280;62446;53.214;10.398;2022-08-01T00:52:54;101009.25;;;21.05;52.66
14757;BME280;62446;53.214;10.398;2022-08-01T00:55:58;101008.44;;;21.05;52.49
14757;BME280;62446;53.214;10.398;2022-08-01T00:59:03;101003.66;;;21.05;52.32
14757;BME280;62446;53.214;10.398;2022-08-01T01:02:08;101010.94;;;21.06;52.20
14757;BME280;62446;53.214;10.398;2022-08-01T01:05:18;101004.50;;;21.06;52.38
14757;BME280;62446;53.214;10.398;2022-08-01T01:08:27;101013.22;;;21.04;52.12
14757;BME280;62446;53.214;10.398;2022-08-01T01:11:44;101007.59;;;21.04;52.26
14757;BME280;62446;53.214;10.398;2022-08-01T01:14:55;101007.31;;;21.06;52.11
14757;BME280;62446;53.214;10.398;2022-08-01T01:18:02;101007.31;;;21.06;52.28
14757;BME280;62446;53.214;10.398;2022-08-01T01:24:38;101010.72;;;21.02;52.35
14757;BME280;62446;53.214;10.398;2022-08-01T01:27:49;101007.59;;;21.04;52.52
14757;BME280;62446;53.214;10.398;2022-08-01T01:30:57;101009.84;;;21.02;52.44
14757;BME280;62446;53.214;10.398;2022-08-01T01:34:03;101011.53;;;21.03;52.17
14757;BME280;62446;53.214;10.398;2022-08-01T01:37:11;101004.25;;;21.02;52.19
14757;BME280;62446;53.214;10.398;2022-08-01T01:40:16;101004.25;;;21.02;52.45
14757;BME280;62446;53.214;10.398;2022-08-01T01:43:22;101005.72;;;20.99;52.50
14757;BME280;62446;53.214;10.398;2022-08-01T01:46:36;101007.44;;;21.19;51.84
14757;BME280;62446;53.214;10.398;2022-08-01T01:49:41;101014.44;;;21.22;51.48
14757;BME280;62446;53.214;10.398;2022-08-01T01:52:48;101011.31;;;21.24;51.48
14757;BME280;62446;53.214;10.398;2022-08-01T01:55:54;101010.47;;;20.99;52.31
14757;BME280;62446;53.214;10.398;2022-08-01T01:59:01;101016.66;;;20.96;52.28
14757;BME280;62446;53.214;10.398;2022-08-01T02:02:08;101017.78;;;20.95;52.59
14757;BME280;62446;53.214;10.398;2022-08-01T02:05:13;101014.97;;;20.95;52.28
14757;BME280;62446;53.214;10.398;2022-08-01T02:08:17;101010.53;;;20.94;52.52
14757;BME280;62446;53.214;10.398;2022-08-01T02:11:21;101012.47;;;20.93;52.42
14757;BME280;62446;53.214;10.398;2022-08-01T02:14:25;101010.81;;;20.92;52.54
14757;BME280;62446;53.214;10.398;2022-08-01T02:17:31;101009.66;;;20.93;52.14
14757;BME280;62446;53.214;10.398;2022-08-01T02:20:38;101008.03;;;20.92;52.50
14757;BME280;62446;53.214;10.398;2022-08-01T02:23:42;101009.97;;;20.92;52.62
14757;BME280;62446;53.214;10.398;2022-08-01T02:26:49;101007.16;;;20.92;52.13
14757;BME280;62446;53.214;10.398;2022-08-01T02:29:58;101010.81;;;20.92;52.33
14757;BME280;62446;53.214;10.398;2022-08-01T02:33:07;101013.06;;;20.90;52.30
14757;BME280;62446;53.214;10.398;2022-08-01T02:36:19;101015.56;;;20.92;52.10
14757;BME280;62446;53.214;10.398;2022-08-01T02:39:36;101012.25;;;20.90;52.05
14757;BME280;62446;53.214;10.398;2022-08-01T02:42:44;101020.34;;;20.91;52.43
14757;BME280;62446;53.214;10.398;2022-08-01T02:45:53;101020.34;;;20.91;52.53
14757;BME280;62446;53.214;10.398;2022-08-01T02:49:00;101015.88;;;20.90;52.48
14757;BME280;62446;53.214;10.398;2022-08-01T02:52:08;101022.63;;;20.89;52.30
14757;BME280;62446;53.214;10.398;2022-08-01T02:55:14;101020.09;;;20.88;52.50
14757;BME280;62446;53.214;10.398;2022-08-01T02:58:18;101030.50;;;20.87;52.39
14757;BME280;62446;53.214;10.398;2022-08-01T03:01:32;101025.72;;;20.88;52.29
14757;BME280;62446;53.214;10.398;2022-08-01T03:04:40;101034.97;;;20.88;52.45
14757;BME280;62446;53.214;10.398;2022-08-01T03:07:45;101036.91;;;20.88;52.37
14757;BME280;62446;53.214;10.398;2022-08-01T03:10:51;101036.09;;;20.87;52.22
14757;BME280;62446;53.214;10.398;2022-08-01T03:13:59;101028.56;;;20.82;52.28
14757;BME280;62446;53.214;10.398;2022-08-01T03:17:05;101040.91;;;20.81;52.57
14757;BME280;62446;53.214;10.398;2022-08-01T03:20:14;101044.88;;;20.80;52.29
14757;BME280;62446;53.214;10.398;2022-08-01T03:23:20;101048.78;;;20.79;52.62
14757;BME280;62446;53.214;10.398;2022-08-01T03:26:39;101052.72;;;20.78;52.47
14757;BME280;62446;53.214;10.398;2022-08-01T03:29:44;101053.84;;;20.77;52.40
14757;BME280;62446;53.214;10.398;2022-08-01T03:32:48;101055.50;;;20.78;52.47
14757;BME280;62446;53.214;10.398;2022-08-01T03:35:54;101056.63;;;20.77;52.27
14757;BME280;62446;53.214;10.398;2022-08-01T03:39:03;101065.03;;;20.77;52.50
14757;BME280;62446;53.214;10.398;2022-08-01T03:42:14;101065.03;;;20.77;52.26
14757;BME280;62446;53.214;10.398;2022-08-01T03:45:22;101066.72;;;20.78;52.29
14757;BME280;62446;53.214;10.398;2022-08-01T03:48:29;101063.41;;;20.76;52.19
14757;BME280;62446;53.214;10.398;2022-08-01T03:51:38;101067.31;;;20.75;52.40
14757;BME280;62446;53.214;10.398;2022-08-01T03:54:46;101058.91;;;20.75;52.33
14757;BME280;62446;53.214;10.398;2022-08-01T03:57:50;101067.31;;;20.75;52.37
14757;BME280;62446;53.214;10.398;2022-08-01T04:00:55;101068.44;;;20.74;52.20
14757;BME280;62446;53.214;10.398;2022-08-01T04:03:59;101068.44;;;20.74;52.25
14757;BME280;62446;53.214;10.398;2022-08-01T04:07:05;101066.78;;;20.73;52.15
14757;BME280;62446;53.214;10.398;2022-08-01T04:10:11;101080.78;;;20.73;52.37
14757;BME280;62446;53.214;10.398;2022-08-01T04:13:14;101070.72;;;20.72;52.54
14757;BME280;62446;53.214;10.398;2022-08-01T04:16:18;101079.94;;;20.73;52.58
14757;BME280;62446;53.214;10.398;2022-08-01T04:19:22;101073.50;;;20.72;52.30
14757;BME280;62446;53.214;10.398;2022-08-01T04:22:27;101083.59;;;20.73;52.49
14757;BME280;62446;53.214;10.398;2022-08-01T04:25:34;101092.00;;;20.73;52.18
14757;BME280;62446;53.214;10.398;2022-08-01T04:28:40;101101.53;;;20.72;52.49
14757;BME280;62446;53.214;10.398;2022-08-01T04:31:47;101097.59;;;20.73;51.99
14757;BME280;62446;53.214;10.398;2022-08-01T04:34:53;101101.53;;;20.72;52.30
14757;BME280;62446;53.214;10.398;2022-08-01T04:38:01;101103.22;;;20.73;52.34
14757;BME280;62446;53.214;10.398;2022-08-01T04:41:06;101103.50;;;20.72;52.12
14757;BME280;62446;53.214;10.398;2022-08-01T04:44:11;101109.94;;;20.72;51.99
14757;BME280;62446;53.214;10.398;2022-08-01T04:47:15;101121.69;;;20.74;52.27
14757;BME280;62446;53.214;10.398;2022-08-01T04:50:19;101117.75;;;20.75;52.26
14757;BME280;62446;53.214;10.398;2022-08-01T04:53:26;101123.34;;;20.75;51.87
14757;BME280;62446;53.214;10.398;2022-08-01T04:56:30;101117.75;;;20.75;51.97
14757;BME280;62446;53.214;10.398;2022-08-01T04:59:38;101123.34;;;20.75;51.99
14757;BME280;62446;53.214;10.398;2022-08-01T05:02:45;101131.75;;;20.75;52.26
14757;BME280;62446;53.214;10.398;2022-08-01T05:05:49;101132.06;;;20.74;52.27
14757;BME280;62446;53.214;10.398;2022-08-01T05:08:54;101131.22;;;20.73;52.29
14757;BME280;62446;53.214;10.398;2022-08-01T05:11:58;101125.63;;;20.73;51.78
14757;BME280;62446;53.214;10.398;2022-08-01T05:15:05;101120.03;;;20.73;51.83
14757;BME280;62446;53.214;10.398;2022-08-01T05:18:16;101121.69;;;20.74;52.03
14757;BME280;62446;53.214;10.398;2022-08-01T05:21:29;101126.44;;;20.74;51.86
14757;BME280;62446;53.214;10.398;2022-08-01T05:24:36;101132.88;;;20.74;51.96
14757;BME280;62446;53.214;10.398;2022-08-01T05:27:41;101134.03;;;20.73;52.00
14757;BME280;62446;53.214;10.398;2022-08-01T05:30:46;101136.84;;;20.73;51.84
14757;BME280;62446;53.214;10.398;2022-08-01T05:33:49;101131.22;;;20.73;51.84
14757;BME280;62446;53.214;10.398;2022-08-01T05:36:53;101139.63;;;20.73;52.15
14757;BME280;62446;53.214;10.398;2022-08-01T05:40:00;101141.28;;;20.74;52.09
14757;BME280;62446;53.214;10.398;2022-08-01T05:43:04;101143.56;;;20.72;52.05
14757;BME280;62446;53.214;10.398;2022-08-01T05:46:08;101141.59;;;20.73;51.83
14757;BME280;62446;53.214;10.398;2022-08-01T05:49:12;101153.66;;;20.73;52.23
14757;BME280;62446;53.214;10.398;2022-08-01T05:52:16;101149.69;;;20.74;51.70
14757;BME280;62446;53.214;10.398;2022-08-01T05:55:21;101153.66;;;20.73;51.70
14757;BME280;62446;53.214;10.398;2022-08-01T05:58:25;101153.66;;;20.73;51.66
14757;BME280;62446;53.214;10.398;2022-08-01T06:01:29;101157.56;;;20.72;51.76
14757;BME280;62446;53.214;10.398;2022-08-01T06:04:33;101159.25;;;20.73;52.14
14757;BME280;62446;53.214;10.398;2022-08-01T06:07:36;101165.97;;;20.72;52.06
14757;BME280;62446;53.214;10.398;2022-08-01T06:10:43;101161.50;;;20.71;52.24
14757;BME280;62446;53.214;10.398;2022-08-01T06:13:46;101160.66;;;20.71;51.77
14757;BME280;62446;53.214;10.398;2022-08-01T06:16:50;101161.50;;;20.71;52.13
14757;BME280;62446;53.214;10.398;2022-08-01T06:19:54;101168.25;;;20.70;52.16
14757;BME280;62446;53.214;10.398;2022-08-01T06:22:58;101168.25;;;20.70;52.00
14757;BME280;62446;53.214;10.398;2022-08-01T06:26:08;101176.34;;;20.72;52.21
14757;BME280;62446;53.214;10.398;2022-08-01T06:29:12;101182.25;;;20.70;52.12
14757;BME280;62446;53.214;10.398;2022-08-01T06:32:16;101183.09;;;20.71;52.13
14757;BME280;62446;53.214;10.398;2022-08-01T06:35:29;101179.72;;;20.68;51.95
14757;BME280;62446;53.214;10.398;2022-08-01T06:38:33;101181.41;;;20.70;52.01
14757;BME280;62446;53.214;10.398;2022-08-01T06:41:38;101191.78;;;20.69;51.78
14757;BME280;62446;53.214;10.398;2022-08-01T06:44:43;101197.38;;;20.69;51.84
14757;BME280;62446;53.214;10.398;2022-08-01T06:47:47;101197.38;;;20.69;52.09
14757;BME280;62446;53.214;10.398;2022-08-01T06:50:52;101191.78;;;20.69;52.17
14757;BME280;62446;53.214;10.398;2022-08-01T06:54:10;101198.22;;;20.70;52.06
14757;BME280;62446;53.214;10.398;2022-08-01T06:57:15;101205.78;;;20.69;52.06
14757;BME280;62446;53.214;10.398;2022-08-01T07:00:21;101198.50;;;20.68;51.87
14757;BME280;62446;53.214;10.398;2022-08-01T07:03:25;101203.81;;;20.70;51.86
14757;BME280;62446;53.214;10.398;2022-08-01T07:06:49;101198.22;;;20.70;52.10
14757;BME280;62446;53.214;10.398;2022-08-01T07:09:53;101197.38;;;20.69;51.97
14757;BME280;62446;53.214;10.398;2022-08-01T07:12:58;101201.31;;;20.68;52.37
14757;BME280;62446;53.214;10.398;2022-08-01T07:16:02;101208.59;;;20.69;52.25
14757;BME280;62446;53.214;10.398;2022-08-01T07:19:06;101214.19;;;20.69;52.05
14757;BME280;62446;53.214;10.398;2022-08-01T07:22:10;101219.81;;;20.69;52.07
14757;BME280;62446;53.214;10.398;2022-08-01T07:25:24;101218.94;;;20.68;51.80
14757;BME280;62446;53.214;10.398;2022-08-01T07:28:30;101219.81;;;20.69;52.13
14757;BME280;62446;53.214;10.398;2022-08-01T07:31:33;101218.13;;;20.68;52.11
14757;BME280;62446;53.214;10.398;2022-08-01T07:34:37;101229.03;;;20.70;52.85
14757;BME280;62446;53.214;10.398;2022-08-01T07:37:41;101226.50;;;20.73;52.37
14757;BME280;62446;53.214;10.398;2022-08-01T07:40:50;101230.06;;;20.79;52.09
14757;BME280;62446;53.214;10.398;2022-08-01T07:43:55;101234.25;;;20.87;52.56
14757;BME280;62446;53.214;10.398;2022-08-01T07:47:05;101238.38;;;20.94;52.52
14757;BME280;62446;53.214;10.398;2022-08-01T07:50:09;101249.28;;;21.01;52.62
14757;BME280;62446;53.214;10.398;2022-08-01T07:53:15;101243.88;;;21.10;52.59
14757;BME280;62446;53.214;10.398;2022-08-01T07:56:18;101244.66;;;21.15;52.24
14757;BME280;62446;53.214;10.398;2022-08-01T07:59:23;101248.59;;;21.19;52.25
14757;BME280;62446;53.214;10.398;2022-08-01T08:02:27;101267.03;;;21.26;52.36
14757;BME280;62446;53.214;10.398;2022-08-01T08:05:32;101255.25;;;21.29;52.10
14757;BME280;62446;53.214;10.398;2022-08-01T08:08:57;101265.59;;;21.33;52.37
14757;BME280;62446;53.214;10.398;2022-08-01T08:12:01;101274.22;;;21.37;52.10
14757;BME280;62446;53.214;10.398;2022-08-01T08:15:07;101269.72;;;21.41;52.23
14757;BME280;62446;53.214;10.398;2022-08-01T08:18:11;101277.53;;;21.44;51.87
14757;BME280;62446;53.214;10.398;2022-08-01T08:21:15;101283.72;;;21.46;51.91
14757;BME280;62446;53.214;10.398;2022-08-01T08:24:19;101279.75;;;21.47;51.94
14757;BME280;62446;53.214;10.398;2022-08-01T08:27:28;101275.75;;;21.53;51.96
14757;BME280;62446;53.214;10.398;2022-08-01T08:30:33;101279.66;;;21.58;52.06
14757;BME280;62446;53.214;10.398;2022-08-01T08:33:37;101282.44;;;21.63;51.74
14757;BME280;62446;53.214;10.398;2022-08-01T08:36:41;101285.75;;;21.65;51.58
14757;BME280;62446;53.214;10.398;2022-08-01T08:39:49;101291.63;;;21.68;51.92
14757;BME280;62446;53.214;10.398;2022-08-01T08:42:53;101281.47;;;21.72;51.57
14757;BME280;62446;53.214;10.398;2022-08-01T08:46:00;101285.66;;;21.75;51.62
14757;BME280;62446;53.214;10.398;2022-08-01T08:49:04;101293.47;;;21.78;51.64
14757;BME280;62446;53.214;10.398;2022-08-01T08:52:10;101284.47;;;21.81;51.75
14757;BME280;62446;53.214;10.398;2022-08-01T08:55:16;101296.78;;;21.85;51.37
14757;BME280;62446;53.214;10.398;2022-08-01T08:58:21;101307.41;;;21.88;51.85
14757;BME280;62446;53.214;10.398;2022-08-01T09:01:34;101315.81;;;21.94;51.66
14757;BME280;62446;53.214;10.398;2022-08-01T09:04:38;101320.84;;;21.97;51.51
14757;BME280;62446;53.214;10.398;2022-08-01T09:07:43;101315.22;;;21.97;51.35
14757;BME280;62446;53.214;10.398;2022-08-01T09:10:46;101328.22;;;21.87;52.69
14757;BME280;62446;53.214;10.398;2022-08-01T09:14:05;101330.22;;;21.82;51.87
14757;BME280;62446;53.214;10.398;2022-08-01T09:17:10;101342.06;;;21.79;51.89
14757;BME280;62446;53.214;10.398;2022-08-01T09:20:23;101342.09;;;21.73;52.03
14757;BME280;62446;53.214;10.398;2022-08-01T09:23:33;101343.22;;;21.72;51.71
14757;BME280;62446;53.214;10.398;2022-08-01T09:26:37;101353.59;;;21.72;52.19
14757;BME280;62446;53.214;10.398;2022-08-01T09:29:41;101357.81;;;21.75;52.17
14757;BME280;62446;53.214;10.398;2022-08-01T09:32:56;101358.03;;;21.78;51.77
14757;BME280;62446;53.214;10.398;2022-08-01T09:36:03;101358.59;;;21.80;51.50
14757;BME280;62446;53.214;10.398;2022-08-01T09:39:15;101362.50;;;21.84;51.65
14757;BME280;62446;53.214;10.398;2022-08-01T09:42:23;101365.81;;;21.86;52.07
14757;BME280;62446;53.214;10.398;2022-08-01T09:45:31;101363.56;;;21.88;51.89
14757;BME280;62446;53.214;10.398;2022-08-01T09:48:56;101374.78;;;21.88;51.91
14757;BME280;62446;53.214;10.398;2022-08-01T09:52:10;101373.94;;;21.88;51.67
14757;BME280;62446;53.214;10.398;2022-08-01T09:55:21;101373.44;;;21.86;51.76
14757;BME280;62446;53.214;10.398;2022-08-01T09:58:25;101374.25;;;21.86;52.08
14757;BME280;62446;53.214;10.398;2022-08-01T10:01:41;101374.28;;;21.81;52.07
14757;BME280;62446;53.214;10.398;2022-08-01T10:04:48;101383.56;;;21.82;51.65
14757;BME280;62446;53.214;10.398;2022-08-01T10:07:57;101382.72;;;21.81;51.77
14757;BME280;62446;53.214;10.398;2022-08-01T10:11:08;101384.69;;;21.81;51.66
14757;BME280;62446;53.214;10.398;2022-08-01T10:14:14;101383.00;;;21.80;51.97
14757;BME280;62446;53.214;10.398;2022-08-01T10:17:20;101388.31;;;21.81;51.53
14757;BME280;62446;53.214;10.398;2022-08-01T10:20:27;101391.69;;;21.83;52.04
14757;BME280;62446;53.214;10.398;2022-08-01T10:23:35;101389.13;;;21.87;52.26
14757;BME280;62446;53.214;10.398;2022-08-01T10:26:43;101393.91;;;21.86;51.86
14757;BME280;62446;53.214;10.398;2022-08-01T10:29:50;101390.78;;;21.88;51.78
14757;BME280;62446;53.214;10.398;2022-08-01T10:33:10;101402.28;;;21.92;52.06
14757;BME280;62446;53.214;10.398;2022-08-01T10:36:37;101402.78;;;21.99;51.90
14757;BME280;62446;53.214;10.398;2022-08-01T10:39:42;101404.47;;;22.00;52.08
14757;BME280;62446;53.214;10.398;2022-08-01T10:42:48;101409.50;;;22.03;51.48
14757;BME280;62446;53.214;10.398;2022-08-01T10:45:54;101407.25;;;22.05;52.00
14757;BME280;62446;53.214;10.398;2022-08-01T10:49:03;101406.34;;;22.10;51.74
14757;BME280;62446;53.214;10.398;2022-08-01T10:52:15;101401.25;;;22.12;51.71
14757;BME280;62446;53.214;10.398;2022-08-01T10:55:23;101399.03;;;22.14;51.46
14757;BME280;62446;53.214;10.398;2022-08-01T10:58:29;101395.91;;;22.15;51.84
14757;BME280;62446;53.214;10.398;2022-08-01T11:01:55;101400.06;;;22.18;51.45
14757;BME280;62446;53.214;10.398;2022-08-01T11:05:04;101410.47;;;22.17;51.98
14757;BME280;62446;53.214;10.398;2022-08-01T11:08:21;101411.59;;;22.16;51.85
14757;BME280;62446;53.214;10.398;2022-08-01T11:11:25;101400.66;;;22.15;51.54
14757;BME280;62446;53.214;10.398;2022-08-01T11:14:31;101397.88;;;22.15;51.49
14757;BME280;62446;53.214;10.398;2022-08-01T11:17:56;101400.97;;;22.13;51.59
14757;BME280;62446;53.214;10.398;2022-08-01T11:21:02;101406.88;;;22.12;51.20
14757;BME280;62446;53.214;10.398;2022-08-01T11:24:56;101404.38;;;22.10;51.13
14757;BME280;62446;53.214;10.398;2022-08-01T11:28:17;101407.19;;;22.10;51.28
14757;BME280;62446;53.214;10.398;2022-08-01T11:31:34;101417.88;;;22.08;51.36
14757;BME280;62446;53.214;10.398;2022-08-01T11:34:52;101415.38;;;22.06;51.22
14757;BME280;62446;53.214;10.398;2022-08-01T11:37:56;101412.00;;;22.04;51.11
14757;BME280;62446;53.214;10.398;2022-08-01T11:41:13;101403.06;;;22.02;51.26
14757;BME280;62446;53.214;10.398;2022-08-01T11:44:22;101417.97;;;21.98;51.04
14757;BME280;62446;53.214;10.398;2022-08-01T11:47:46;101413.50;;;21.97;51.32
14757;BME280;62446;53.214;10.398;2022-08-01T11:50:52;101416.06;;;21.93;51.33
14757;BME280;62446;53.214;10.398;2022-08-01T11:53:56;101416.59;;;21.90;51.45
14757;BME280;62446;53.214;10.398;2022-08-01T11:57:04;101406.81;;;21.87;51.76
14757;BME280;62446;53.214;10.398;2022-08-01T12:00:11;101409.06;;;21.85;51.24
14757;BME280;62446;53.214;10.398;2022-08-01T12:03:23;101407.41;;;21.84;51.48
14757;BME280;62446;53.214;10.398;2022-08-01T12:06:35;101409.94;;;21.81;51.63
14757;BME280;62446;53.214;10.398;2022-08-01T12:09:42;101403.81;;;21.79;51.58
14757;BME280;62446;53.214;10.398;2022-08-01T12:12:49;101405.75;;;21.78;51.25
14757;BME280;62446;53.214;10.398;2022-08-01T12:15:53;101410.00;;;21.76;51.64
14757;BME280;62446;53.214;10.398;2022-08-01T12:18:58;101410.31;;;21.74;51.47
14757;BME280;62446;53.214;10.398;2022-08-01T12:22:11;101394.59;;;21.73;51.61
14757;BME280;62446;53.214;10.398;2022-08-01T12:25:17;101410.84;;;21.71;51.84
14757;BME280;62446;53.214;10.398;2022-08-01T12:28:22;101405.81;;;21.73;51.61
14757;BME280;62446;53.214;10.398;2022-08-01T12:31:33;101409.66;;;21.82;51.66
14757;BME280;62446;53.214;10.398;2022-08-01T12:34:37;101413.03;;;21.84;51.66
14757;BME280;62446;53.214;10.398;2022-08-01T12:37:42;101409.63;;;21.87;51.62
14757;BME280;62446;53.214;10.398;2022-08-01T12:40:47;101410.16;;;21.89;51.76
14757;BME280;62446;53.214;10.398;2022-08-01T12:43:57;101405.97;;;21.92;51.70
14757;BME280;62446;53.214;10.398;2022-08-01T12:47:02;101414.91;;;21.94;51.65
14757;BME280;62446;53.214;10.398;2022-08-01T12:50:12;101409.00;;;21.96;51.54
14757;BME280;62446;53.214;10.398;2022-08-01T12:53:17;101412.38;;;21.98;51.67
14757;BME280;62446;53.214;10.398;2022-08-01T12:56:30;101412.91;;;22.00;51.75
14757;BME280;62446;53.214;10.398;2022-08-01T12:59:36;101424.44;;;21.98;51.78
14757;BME280;62446;53.214;10.398;2022-08-01T13:02:41;101415.19;;;21.98;51.92
14757;BME280;62446;53.214;10.398;2022-08-01T13:05:48;101409.84;;;21.96;52.62
14757;BME280;62446;53.214;10.398;2022-08-01T13:08:52;101410.16;;;21.95;52.68
14757;BME280;62446;53.214;10.398;2022-08-01T13:11:56;101402.84;;;21.94;52.39
14757;BME280;62446;53.214;10.398;2022-08-01T13:15:25;101406.50;;;21.94;52.27
14757;BME280;62446;53.214;10.398;2022-08-01T13:18:30;101412.09;;;21.94;52.54
14757;BME280;62446;53.214;10.398;2022-08-01T13:21:34;101415.78;;;21.95;52.41
14757;BME280;62446;53.214;10.398;2022-08-01T13:25:09;101416.88;;;21.88;52.40
14757;BME280;62446;53.214;10.398;2022-08-01T13:28:17;101414.63;;;21.96;52.24
14757;BME280;62446;53.214;10.398;2022-08-01T13:31:32;101412.97;;;21.95;52.40
14757;BME280;62446;53.214;10.398;2022-08-01T13:34:36;101419.69;;;21.94;52.24
14757;BME280;62446;53.214;10.398;2022-08-01T13:37:41;101425.91;;;21.91;52.53
14757;BME280;62446;53.214;10.398;2022-08-01T13:40:45;101419.41;;;21.90;52.09
14757;BME280;62446;53.214;10.398;2022-08-01T13:43:49;101416.34;;;21.86;52.61
14757;BME280;62446;53.214;10.398;2022-08-01T13:47:03;101420.28;;;21.85;52.67
14757;BME280;62446;53.214;10.398;2022-08-01T13:50:18;101417.47;;;21.85;52.39
14757;BME280;62446;53.214;10.398;2022-08-01T13:53:21;101419.19;;;21.81;52.58
14757;BME280;62446;53.214;10.398;2022-08-01T13:56:26;101419.78;;;21.78;52.24
14757;BME280;62446;53.214;10.398;2022-08-01T13:59:30;101437.47;;;21.79;52.67
14757;BME280;62446;53.214;10.398;2022-08-01T14:02:35;101429.88;;;21.84;52.40
14757;BME280;62446;53.214;10.398;2022-08-01T14:05:39;101431.75;;;21.94;52.05
14757;BME280;62446;53.214;10.398;2022-08-01T14:08:44;101443.78;;;22.00;51.61
14757;BME280;62446;53.214;10.398;2022-08-01T14:11:48;101444.28;;;22.07;52.15
14757;BME280;62446;53.214;10.398;2022-08-01T14:14:53;101444.50;;;22.11;51.35
14757;BME280;62446;53.214;10.398;2022-08-01T14:17:58;101449.81;;;22.17;51.76
14757;BME280;62446;53.214;10.398;2022-08-01T14:21:02;101447.53;;;22.19;51.47
14757;BME280;62446;53.214;10.398;2022-08-01T14:24:07;101450.28;;;22.24;51.66
14757;BME280;62446;53.214;10.398;2022-08-01T14:27:11;101457.00;;;22.29;51.83
14757;BME280;62446;53.214;10.398;2022-08-01T14:30:15;101450.28;;;22.24;51.58
14757;BME280;62446;53.214;10.398;2022-08-01T14:33:21;101445.28;;;22.21;51.50
14757;BME280;62446;53.214;10.398;2022-08-01T14:36:24;101447.53;;;22.19;51.49
14757;BME280;62446;53.214;10.398;2022-08-01T14:39:32;101450.63;;;22.18;51.36
14757;BME280;62446;53.214;10.398;2022-08-01T14:42:36;101448.72;;;22.13;51.73
14757;BME280;62446;53.214;10.398;2022-08-01T14:45:40;101447.06;;;22.12;51.93
14757;BME280;62446;53.214;10.398;2022-08-01T14:48:45;101448.72;;;22.13;51.78
14757;BME280;62446;53.214;10.398;2022-08-01T14:51:49;101450.41;;;22.14;51.45
14757;BME280;62446;53.214;10.398;2022-08-01T14:54:53;101452.06;;;22.15;51.63
14757;BME280;62446;53.214;10.398;2022-08-01T14:57:57;101448.13;;;22.16;51.53
14757;BME280;62446;53.214;10.398;2022-08-01T15:01:00;101450.63;;;22.18;51.38
14757;BME280;62446;53.214;10.398;2022-08-01T15:04:06;101454.81;;;22.20;51.41
14757;BME280;62446;53.214;10.398;2022-08-01T15:07:11;101456.50;;;22.21;51.12
14757;BME280;62446;53.214;10.398;2022-08-01T15:10:15;101459.84;;;22.23;51.49
14757;BME280;62446;53.214;10.398;2022-08-01T15:13:18;101457.63;;;22.20;51.19
14757;BME280;62446;53.214;10.398;2022-08-01T15:16:22;101454.81;;;22.20;50.56
14757;BME280;62446;53.214;10.398;2022-08-01T15:19:28;101454.59;;;22.17;50.24
14757;BME280;62446;53.214;10.398;2022-08-01T15:22:32;101463.91;;;22.12;49.53
14757;BME280;62446;53.214;10.398;2022-08-01T15:25:36;101467.25;;;22.14;50.46
14757;BME280;62446;53.214;10.398;2022-08-01T15:28:43;101467.25;;;22.14;50.43
14757;BME280;62446;53.214;10.398;2022-08-01T15:31:47;101470.88;;;22.15;49.84
14757;BME280;62446;53.214;10.398;2022-08-01T15:34:52;101471.19;;;22.13;49.81
14757;BME280;62446;53.214;10.398;2022-08-01T15:37:56;101476.25;;;22.11;50.04
14757;BME280;62446;53.214;10.398;2022-08-01T15:41:00;101474.03;;;22.08;49.83
14757;BME280;62446;53.214;10.398;2022-08-01T15:44:04;101480.25;;;22.05;49.47
14757;BME280;62446;53.214;10.398;2022-08-01T15:47:09;101482.50;;;22.03;49.73
14757;BME280;62446;53.214;10.398;2022-08-01T15:50:14;101476.88;;;22.03;50.18
14757;BME280;62446;53.214;10.398;2022-08-01T15:53:20;101481.66;;;22.02;49.97
14757;BME280;62446;53.214;10.398;2022-08-01T15:56:24;101486.47;;;22.02;50.20
14757;BME280;62446;53.214;10.398;2022-08-01T15:59:30;101485.59;;;22.01;49.91
14757;BME280;62446;53.214;10.398;2022-08-01T16:02:34;101493.72;;;22.03;49.71
14757;BME280;62446;53.214;10.398;2022-08-01T16:05:39;101487.28;;;22.02;49.71
14757;BME280;62446;53.214;10.398;2022-08-01T16:08:45;101497.69;;;22.02;49.59